Time;durP1;ratioP1;P1;durP2;ratioP2;P2;SDS_P1;SDS_P2;PMS_P1;PMS_P2;Temp;Humidity;BMP_temperature;BMP_pressure;BME280_temperature;BME280_humidity;BME280_pressure;Samples;Min_cycle;Max_cycle;Signal;HPM_P1;HPM_P2
2022/06/25 05:58:47;;;;;;;13.40;1.95;;;;;;;15.89;100.00;99543.19;6228406;22;20012;-96
2022/06/25 12:08:05;;;;;;;5.57;1.67;;;;;;;26.12;37.94;99610.53;6184033;23;19916;-82
2022/06/25 12:10:31;;;;;;;6.10;1.13;;;;;;;27.15;100.00;99605.97;6184173;23;20009;-83
2022/06/25 12:12:57;;;;;;;7.07;1.08;;;;;;;25.79;100.00;80238.00;6183823;23;20355;-82
2022/06/25 12:15:31;;;;;;;5.15;1.25;;;;;;;25.64;39.45;99606.69;6184079;23;20005;-83
2022/06/25 12:18:06;;;;;;;5.75;1.52;;;;;;;25.75;41.38;99607.81;6157623;23;20005;-83
2022/06/25 12:20:32;;;;;;;8.70;1.35;;;;;;;25.73;41.46;99594.59;6154275;23;20050;-83
2022/06/25 12:22:58;;;;;;;7.70;1.63;;;;;;;25.37;41.31;99592.66;6094735;23;20057;-82
2022/06/25 12:25:26;;;;;;;4.30;1.15;;;;;;;26.40;42.31;99592.97;6095849;23;20093;-83
2022/06/25 12:27:51;;;;;;;8.70;1.25;;;;;;;26.29;41.91;99595.41;6095589;23;20046;-81
2022/06/25 12:30:25;;;;;;;8.30;1.52;;;;;;;26.82;41.57;99579.59;6095531;23;20010;-84
2022/06/25 12:32:52;;;;;;;6.35;1.52;;;;;;;26.77;40.52;99579.44;6095316;23;20010;-84
2022/06/25 12:35:23;;;;;;;11.55;1.77;;;;;;;26.71;40.38;99568.53;6095526;23;20426;-83
2022/06/25 12:38:04;;;;;;;7.30;1.47;;;;;;;27.43;39.68;99586.47;6094951;23;20014;-82
2022/06/25 12:40:48;;;;;;;5.32;1.35;;;;;;;26.28;38.81;99583.00;6095435;23;20006;-82
2022/06/25 12:43:15;;;;;;;4.68;1.00;;;;;;;25.77;40.46;99588.75;6093438;23;20006;-83
2022/06/25 12:45:43;;;;;;;4.70;1.92;;;;;;;24.97;41.10;99586.78;6095165;23;20433;-83
2022/06/25 12:48:09;;;;;;;9.85;1.77;;;;;;;25.27;41.87;99595.84;6095356;23;20038;-84
2022/06/25 12:50:36;;;;;;;9.23;1.30;;;;;;;25.42;41.78;99594.72;6095480;23;20038;-82
2022/06/25 12:53:14;;;;;;;7.10;1.05;;;;;;;25.96;39.37;99601.19;6094906;23;20010;-82
2022/06/25 12:55:43;;;;;;;7.82;1.50;;;;;;;26.24;38.74;99575.59;6095484;23;20038;-84
2022/06/25 12:58:12;;;;;;;5.72;1.02;;;;;;;25.80;39.80;99583.75;6095469;23;20002;-82
2022/06/25 13:00:38;;;;;;;3.75;1.58;;;;;;;25.17;39.71;99600.88;6094980;23;20002;-83
2022/06/25 13:03:07;;;;;;;8.85;1.50;;;;;;;24.99;40.29;99590.09;6095391;23;20003;-82
2022/06/25 13:05:33;;;;;;;3.83;1.15;;;;;;;23.92;41.53;99590.66;6097501;23;20006;-82
2022/06/25 13:08:00;;;;;;;10.68;1.77;;;;;;;23.86;42.77;99602.22;6095560;23;20025;-82
2022/06/25 13:10:25;;;;;;;5.30;1.27;;;;;;;24.35;41.83;99590.06;6097338;23;20014;-81
2022/06/25 13:12:52;;;;;;;5.25;1.85;;;;;;;23.70;43.04;99592.75;6095608;23;20091;-82
2022/06/25 13:15:18;;;;;;;4.22;1.42;;;;;;;23.69;43.58;99594.56;6097435;23;19998;-82
2022/06/25 13:17:43;;;;;;;14.18;1.67;;;;;;;23.85;42.71;99596.00;6096996;23;20007;-83
2022/06/25 13:20:09;;;;;;;6.03;1.55;;;;;;;23.87;44.39;99585.06;6097363;23;20125;-83
2022/06/25 13:22:35;;;;;;;2.92;1.30;;;;;;;24.79;41.99;99595.59;6096499;23;20411;-83
2022/06/25 13:25:02;;;;;;;6.60;1.48;;;;;;;24.37;41.54;99585.28;6097189;23;20065;-83
2022/06/25 13:27:29;;;;;;;9.00;2.88;;;;;;;23.87;42.20;99593.13;6119305;23;20086;-83
2022/06/25 13:29:55;;;;;;;9.48;1.88;;;;;;;23.85;42.46;99604.03;6097146;23;20002;-83
2022/06/25 13:32:20;;;;;;;8.07;1.55;;;;;;;23.74;43.23;99600.13;6096772;23;20010;-83
2022/06/25 13:34:48;;;;;;;5.30;1.38;;;;;;;24.69;41.42;99602.25;6096939;23;20440;-83
2022/06/25 13:37:14;;;;;;;8.68;1.98;;;;;;;23.59;44.10;99598.72;6096584;23;20006;-83
2022/06/25 13:39:40;;;;;;;9.38;1.90;;;;;;;24.02;44.07;99596.38;6097202;23;20006;-83
2022/06/25 13:42:05;;;;;;;7.30;2.45;;;;;;;24.27;43.12;99579.53;6096562;23;20010;-82
2022/06/25 13:44:34;;;;;;;7.45;1.67;;;;;;;24.39;42.78;99593.09;6096915;23;20014;-82
2022/06/25 13:47:01;;;;;;;7.55;2.05;;;;;;;23.56;41.90;99594.63;6096663;23;20546;-82
2022/06/25 13:49:27;;;;;;;8.77;1.73;;;;;;;23.51;42.91;99605.13;6096606;23;20010;-82
2022/06/25 13:51:52;;;;;;;5.75;0.95;;;;;;;23.77;42.69;99620.34;6096544;23;20449;-81
2022/06/25 13:54:17;;;;;;;5.72;1.23;;;;;;;22.92;43.40;99612.91;6119590;23;20050;-82
2022/06/25 13:56:43;;;;;;;9.10;1.42;;;;;;;23.44;43.81;99610.50;6096661;23;20010;-82
2022/06/25 13:59:08;;;;;;;6.57;1.38;;;;;;;23.21;43.49;99594.84;6096689;23;20334;-81
2022/06/25 14:01:34;;;;;;;14.10;1.65;;;;;;;23.00;43.79;99603.88;6096889;23;20407;-81
2022/06/25 14:04:00;;;;;;;6.57;1.42;;;;;;;23.68;42.77;99602.84;6096646;23;20014;-81
2022/06/25 14:06:26;;;;;;;3.60;1.00;;;;;;;23.38;41.77;99605.13;6096385;23;20007;-82
2022/06/25 14:08:52;;;;;;;3.67;1.40;;;;;;;23.57;42.67;99625.72;6096878;23;20013;-81
2022/06/25 14:11:17;;;;;;;8.45;1.77;;;;;;;23.43;43.23;99614.19;6095824;23;20395;-81
2022/06/25 14:13:42;;;;;;;8.13;1.33;;;;;;;23.92;43.91;99617.44;6096680;23;20307;-81
2022/06/25 14:16:08;;;;;;;5.15;1.33;;;;;;;24.92;40.97;99599.03;6096822;23;20089;-81
2022/06/25 14:18:34;;;;;;;5.35;1.02;;;;;;;23.91;41.36;99611.28;6096666;23;20053;-81
2022/06/25 14:21:03;;;;;;;4.53;1.30;;;;;;;23.89;42.09;99599.91;6096177;23;20030;-81
2022/06/25 14:23:33;;;;;;;8.55;1.58;;;;;;;23.83;43.48;99597.25;6096457;23;20002;-81
2022/06/25 14:25:59;;;;;;;5.90;1.25;;;;;;;24.51;43.13;99597.63;6096164;23;20013;-81
2022/06/25 14:28:25;;;;;;;6.57;1.52;;;;;;;23.28;42.19;99610.91;6096505;23;20007;-81
2022/06/25 14:30:50;;;;;;;2.95;1.10;;;;;;;23.60;43.37;99613.75;6096285;23;20497;-81
2022/06/25 14:33:16;;;;;;;5.97;1.40;;;;;;;23.58;43.04;99600.59;6096659;23;20011;-81
2022/06/25 14:42:20;;;;;;;7.97;1.58;;;;;;;23.29;43.34;99596.50;6096087;23;20317;-81
2022/06/25 14:43:56;;;;;;;4.32;1.17;;;;;;;24.27;41.77;99611.72;6096327;23;20149;-81
2022/06/25 14:46:21;;;;;;;4.65;1.02;;;;;;;23.61;42.55;99612.75;6095937;23;19999;-81
2022/06/25 14:48:47;;;;;;;9.77;1.20;;;;;;;23.65;43.35;99611.28;6096360;23;20053;-81
2022/06/25 14:51:12;;;;;;;8.68;1.45;;;;;;;24.35;42.92;99606.16;6095988;23;20418;-81
2022/06/25 14:53:37;;;;;;;6.20;1.25;;;;;;;24.45;43.77;99595.78;6096050;23;20510;-81
2022/06/25 14:56:03;;;;;;;3.13;0.95;;;;;;;24.89;41.67;99591.38;6095566;23;20367;-81
2022/06/25 14:58:28;;;;;;;6.20;1.17;;;;;;;24.41;43.21;99594.56;6094252;23;20426;-81
2022/06/25 15:00:53;;;;;;;9.73;2.03;;;;;;;24.94;43.20;99596.09;6095699;23;20018;-81
2022/06/25 15:03:19;;;;;;;5.35;1.15;;;;;;;24.79;42.63;99609.84;6095922;23;20002;-81
2022/06/25 15:05:46;;;;;;;5.68;1.15;;;;;;;24.12;43.14;99596.75;6095599;23;20009;-81
2022/06/25 15:08:12;;;;;;;6.43;1.20;;;;;;;23.65;43.16;99604.06;6095727;23;20006;-81
2022/06/25 15:10:37;;;;;;;3.42;1.13;;;;;;;22.95;42.98;99607.16;6095868;23;20332;-81
2022/06/25 15:13:03;;;;;;;5.07;1.13;;;;;;;23.21;43.07;99600.22;6095104;23;20006;-80
2022/06/25 15:15:28;;;;;;;8.45;2.47;;;;;;;23.98;42.28;99611.25;6093624;23;20002;-80
2022/06/25 15:17:54;;;;;;;6.07;1.30;;;;;;;23.68;41.83;99590.25;6094562;23;20033;-80
2022/06/25 15:20:19;;;;;;;7.70;1.20;;;;;;;23.94;41.75;99612.69;6094331;23;20006;-80
2022/06/25 15:22:45;;;;;;;4.40;1.15;;;;;;;24.07;40.86;99599.25;6095633;23;20476;-80
2022/06/25 15:25:10;;;;;;;6.00;1.20;;;;;;;23.67;41.84;99601.19;6094273;23;20006;-82
2022/06/25 15:27:35;;;;;;;5.70;1.50;;;;;;;24.12;41.59;99599.41;6095188;23;20010;-80
2022/06/25 15:30:01;;;;;;;8.30;1.60;;;;;;;23.19;42.17;99615.66;6095502;23;20085;-81
2022/06/25 15:32:26;;;;;;;11.88;2.58;;;;;;;23.39;42.19;99591.53;6095320;23;20006;-81
2022/06/25 15:34:52;;;;;;;5.50;1.10;;;;;;;23.88;40.98;99610.88;6095029;23;20026;-82
2022/06/25 15:37:17;;;;;;;5.32;1.58;;;;;;;23.38;41.98;99597.09;6095567;23;20006;-82
2022/06/25 15:39:42;;;;;;;5.32;1.17;;;;;;;24.03;41.06;99590.00;6095219;23;20081;-82
2022/06/25 15:42:08;;;;;;;9.13;1.50;;;;;;;23.13;42.61;99597.75;6095513;23;20041;-81
2022/06/25 15:44:33;;;;;;;12.95;1.88;;;;;;;22.54;43.33;99584.03;6095049;23;20006;-82
2022/06/25 15:46:58;;;;;;;4.60;1.60;;;;;;;23.21;42.63;99597.53;6095809;23;20061;-81
2022/06/25 15:49:24;;;;;;;11.20;2.00;;;;;;;22.49;43.63;99610.59;6094456;23;20011;-81
2022/06/25 15:51:49;;;;;;;9.70;2.08;;;;;;;22.15;44.66;99606.91;6094854;23;20433;-81
2022/06/25 15:54:14;;;;;;;8.23;1.90;;;;;;;23.26;43.02;99597.75;6094846;23;20030;-82
2022/06/25 15:56:40;;;;;;;4.18;1.35;;;;;;;23.81;42.77;99604.69;6095398;23;20009;-82
2022/06/25 16:01:49;;;;;;;7.55;1.33;;;;;;;23.98;42.85;99605.06;6094981;23;20045;-82
2022/06/25 16:04:14;;;;;;;5.07;1.55;;;;;;;23.87;43.22;99599.28;6095379;23;20010;-82
2022/06/25 16:06:40;;;;;;;5.65;1.42;;;;;;;23.10;43.58;99593.59;6095243;23;20526;-82
2022/06/25 16:09:05;;;;;;;4.60;1.02;;;;;;;23.04;42.95;99607.00;6095162;23;20017;-82
2022/06/25 16:11:31;;;;;;;4.50;1.17;;;;;;;24.17;41.15;99598.81;6093473;23;20006;-82
2022/06/25 16:14:12;;;;;;;6.95;1.10;;;;;;;23.79;42.16;99588.00;6093457;23;20489;-81
2022/06/25 16:16:41;;;;;;;3.77;1.20;;;;;;;24.06;42.01;99594.09;6093490;23;20390;-82
2022/06/25 16:19:06;;;;;;;5.38;0.90;;;;;;;23.69;42.74;99591.91;6116476;23;20452;-82
2022/06/25 16:21:34;;;;;;;8.45;1.00;;;;;;;23.32;42.13;99598.75;6093850;23;20034;-82
2022/06/25 16:24:00;;;;;;;10.75;2.45;;;;;;;23.62;42.14;99593.78;6093768;23;20077;-82
2022/06/25 16:26:25;;;;;;;4.45;1.00;;;;;;;23.96;41.26;99591.88;6093784;23;20481;-82
2022/06/25 16:28:51;;;;;;;3.67;1.08;;;;;;;23.79;41.85;99590.69;6093639;23;20011;-82
2022/06/25 16:31:16;;;;;;;2.17;0.52;;;;;;;24.22;41.06;99584.75;6091927;23;20014;-82
2022/06/25 16:33:42;;;;;;;7.47;1.10;;;;;;;23.35;42.73;99593.00;6094091;23;20010;-82
2022/06/25 16:36:07;;;;;;;4.47;0.95;;;;;;;22.45;43.56;99579.91;6093767;23;20053;-82
2022/06/25 16:38:34;;;;;;;6.82;1.65;;;;;;;23.14;42.57;99586.84;6094877;23;20013;-82
2022/06/25 16:41:01;;;;;;;6.72;1.13;;;;;;;22.98;43.65;99584.50;6095452;23;20010;-82
2022/06/25 16:44:00;;;;;;;6.75;1.52;;;;;;;22.46;43.13;99586.09;6095261;23;20002;-82
2022/06/25 16:46:13;;;;;;;7.82;0.90;;;;;;;21.93;44.55;99582.16;6095466;23;20017;-82
2022/06/25 16:48:39;;;;;;;5.43;1.13;;;;;;;22.29;44.59;99588.28;6095682;23;20011;-82
2022/06/25 16:51:06;;;;;;;2.85;0.73;;;;;;;22.66;44.41;99570.09;6095602;23;20074;-82
2022/06/25 16:53:33;;;;;;;2.60;0.82;;;;;;;22.25;45.07;99579.03;6096143;23;20009;-82
2022/06/25 16:55:58;;;;;;;5.47;1.20;;;;;;;22.87;44.22;99569.91;6098648;23;20018;-82
2022/06/25 16:58:24;;;;;;;5.38;1.38;;;;;;;22.80;43.59;99563.72;6097907;23;20006;-83
2022/06/25 17:00:50;;;;;;;3.35;0.95;;;;;;;22.57;44.50;99578.31;6095838;23;20381;-83
2022/06/25 17:03:17;;;;;;;5.30;0.98;;;;;;;22.64;44.48;99572.13;6097059;23;20006;-82
2022/06/25 17:05:42;;;;;;;7.38;1.20;;;;;;;22.53;44.95;99577.06;6092728;23;20030;-83
2022/06/25 17:08:08;;;;;;;4.70;1.38;;;;;;;21.84;46.09;99574.50;6093145;23;20449;-82
2022/06/25 17:10:33;;;;;;;3.55;0.73;;;;;;;22.63;44.90;99568.66;6089545;23;20010;-82
2022/06/25 17:12:58;;;;;;;4.18;0.85;;;;;;;22.41;45.02;99584.00;6089919;23;20033;-82
2022/06/25 17:15:24;;;;;;;7.65;1.00;;;;;;;21.75;45.34;99593.38;6089353;23;20006;-82
2022/06/25 17:17:49;;;;;;;6.22;0.80;;;;;;;21.76;45.01;99588.84;6090008;23;20433;-82
2022/06/25 17:20:14;;;;;;;6.15;1.30;;;;;;;22.22;43.97;99582.91;6090178;23;20006;-82
2022/06/25 17:22:40;;;;;;;4.82;0.75;;;;;;;21.67;44.13;99582.84;6090360;23;20014;-83
2022/06/25 17:25:05;;;;;;;5.70;1.08;;;;;;;21.35;43.37;99589.59;6090436;23;20010;-82
2022/06/25 17:27:31;;;;;;;3.88;0.88;;;;;;;21.54;42.91;99593.44;6087560;23;20038;-82
2022/06/25 17:29:56;;;;;;;5.57;0.95;;;;;;;21.37;42.38;99593.72;6090504;23;20006;-81
2022/06/25 17:32:22;;;;;;;3.17;0.88;;;;;;;21.48;43.45;99607.56;6089679;23;20346;-81
2022/06/25 17:34:47;;;;;;;4.22;0.93;;;;;;;21.04;44.86;99608.66;6087485;23;20517;-82
2022/06/25 17:37:12;;;;;;;11.93;1.20;;;;;;;21.62;44.70;99608.50;6083724;23;20021;-82
2022/06/25 17:39:38;;;;;;;3.58;0.93;;;;;;;20.93;45.89;99609.97;6085422;23;20426;-82
2022/06/25 17:42:03;;;;;;;8.02;0.90;;;;;;;21.08;46.21;99609.91;6086677;23;20003;-82
2022/06/25 17:44:29;;;;;;;4.93;1.27;;;;;;;21.02;46.92;99616.84;6085278;23;20014;-82
2022/06/25 17:46:54;;;;;;;4.20;0.80;;;;;;;21.41;46.26;99609.38;6088179;23;20111;-82
2022/06/25 17:49:20;;;;;;;4.82;0.70;;;;;;;21.86;45.69;99607.19;6087224;23;20446;-82
2022/06/25 17:51:46;;;;;;;2.60;0.80;;;;;;;21.38;46.63;99616.72;6086783;23;20319;-83
2022/06/25 17:54:11;;;;;;;4.15;0.75;;;;;;;21.18;46.92;99618.41;6090856;23;20449;-81
2022/06/25 17:56:37;;;;;;;5.15;0.98;;;;;;;22.06;45.86;99610.81;6089941;23;20006;-81
2022/06/25 17:59:02;;;;;;;6.30;1.60;;;;;;;22.04;46.33;99606.66;6093985;23;20333;-81
2022/06/25 18:01:28;;;;;;;5.45;1.38;;;;;;;21.41;46.99;99631.53;6093830;23;20007;-81
2022/06/25 18:03:53;;;;;;;4.82;2.03;;;;;;;21.51;47.69;99613.34;6094065;23;20010;-81
2022/06/25 18:06:18;;;;;;;8.55;1.50;;;;;;;21.28;48.36;99642.09;6095228;23;20030;-82
2022/06/25 18:08:44;;;;;;;11.02;1.38;;;;;;;21.66;47.75;99628.44;6094183;23;20007;-82
2022/06/25 18:11:19;;;;;;;10.57;1.08;;;;;;;21.76;47.54;99627.09;6096086;23;20022;-82
2022/06/25 18:13:48;;;;;;;5.22;1.38;;;;;;;21.57;47.68;99625.13;6095579;23;20002;-81
2022/06/25 18:16:16;;;;;;;6.40;1.05;;;;;;;21.88;47.28;99622.03;6093454;23;20437;-82
2022/06/25 18:18:41;;;;;;;7.82;1.10;;;;;;;21.71;46.18;99618.81;6095779;23;20006;-82
2022/06/25 18:21:07;;;;;;;4.75;1.38;;;;;;;21.60;46.99;99622.03;6095419;23;20014;-82
2022/06/25 18:23:32;;;;;;;5.55;1.35;;;;;;;21.73;47.74;99624.81;6096123;23;20258;-82
2022/06/25 18:25:58;;;;;;;9.00;1.10;;;;;;;21.82;47.79;99616.63;6095031;23;20385;-82
2022/06/25 18:28:24;;;;;;;6.97;1.08;;;;;;;22.18;46.98;99614.56;6096741;23;20002;-82
2022/06/25 18:30:49;;;;;;;7.50;1.27;;;;;;;21.99;48.04;99620.63;6094879;23;20399;-82
2022/06/25 18:33:15;;;;;;;5.10;1.08;;;;;;;22.09;47.35;99629.09;6096113;23;20010;-80
2022/06/25 18:35:40;;;;;;;10.85;1.52;;;;;;;21.87;48.07;99625.72;6093337;23;20006;-81
2022/06/25 18:38:06;;;;;;;5.78;0.90;;;;;;;21.40;48.48;99629.88;6095684;23;20002;-81
2022/06/25 18:40:31;;;;;;;4.43;1.17;;;;;;;20.58;50.88;99631.97;6094463;23;20022;-82
2022/06/25 18:42:56;;;;;;;6.70;1.40;;;;;;;21.18;50.18;99637.09;6095751;23;20006;-83
2022/06/25 18:45:22;;;;;;;5.03;1.42;;;;;;;21.02;50.95;99638.19;6096116;23;20418;-82
2022/06/25 18:47:47;;;;;;;4.57;1.02;;;;;;;21.47;50.40;99635.31;6094991;23;20077;-82
2022/06/25 18:50:13;;;;;;;5.97;1.00;;;;;;;21.50;50.26;99640.25;6094508;23;20007;-82
2022/06/25 18:52:38;;;;;;;6.60;1.45;;;;;;;21.13;50.51;99642.16;6095013;23;20003;-82
2022/06/25 18:55:04;;;;;;;8.57;1.50;;;;;;;20.78;52.15;99637.53;6095977;23;20002;-82
2022/06/25 18:57:30;;;;;;;20.63;2.25;;;;;;;20.76;50.76;99642.25;6094621;23;20002;-81
2022/06/25 18:59:56;;;;;;;6.70;1.40;;;;;;;21.13;50.87;99647.50;6095746;23;19998;-82
2022/06/25 19:02:21;;;;;;;5.85;1.00;;;;;;;20.38;52.40;99637.06;6095025;23;20434;-82
2022/06/25 19:04:48;;;;;;;12.05;1.80;;;;;;;20.68;52.00;99631.69;6091298;23;20010;-82
2022/06/25 19:07:14;;;;;;;4.10;0.98;;;;;;;20.95;51.77;99645.28;6094626;23;20046;-82
2022/06/25 19:09:39;;;;;;;12.55;1.33;;;;;;;20.66;52.62;99643.56;6094161;23;20434;-84
2022/06/25 19:12:08;;;;;;;6.22;1.00;;;;;;;21.34;51.26;99641.34;6095365;23;20077;-82
2022/06/25 19:14:34;;;;;;;5.60;1.17;;;;;;;20.84;51.95;99637.81;6095144;23;20081;-83
2022/06/25 19:16:59;;;;;;;5.65;1.08;;;;;;;21.18;51.90;99647.78;6094993;23;20077;-82
2022/06/25 19:19:24;;;;;;;8.55;1.58;;;;;;;20.72;52.45;99650.81;6094120;23;20013;-82
2022/06/25 19:21:50;;;;;;;7.97;1.40;;;;;;;20.53;52.56;99650.34;6096086;23;20014;-83
2022/06/25 19:24:16;;;;;;;7.47;1.20;;;;;;;20.63;52.57;99659.94;6093803;23;20013;-82
2022/06/25 19:26:41;;;;;;;6.07;1.20;;;;;;;20.71;52.79;99651.81;6095391;23;20003;-82
2022/06/25 19:29:07;;;;;;;6.05;1.70;;;;;;;20.97;51.93;99649.44;6095624;23;20057;-83
2022/06/25 19:31:33;;;;;;;11.32;1.52;;;;;;;20.54;52.90;99651.22;6093878;23;20381;-82
2022/06/25 19:33:58;;;;;;;11.07;1.83;;;;;;;20.98;52.57;99655.59;6094043;23;20002;-82
2022/06/25 19:36:25;;;;;;;6.38;0.95;;;;;;;20.63;52.95;99658.09;6115096;23;20013;-82
2022/06/25 19:38:51;;;;;;;3.80;0.93;;;;;;;20.13;53.55;99659.72;6094100;23;20002;-82
2022/06/25 19:41:17;;;;;;;5.80;0.88;;;;;;;19.61;54.41;99666.72;6093957;23;20017;-82
2022/06/25 19:43:42;;;;;;;7.50;1.40;;;;;;;20.11;53.15;99669.72;6094084;23;20046;-83
2022/06/25 19:46:07;;;;;;;5.47;0.98;;;;;;;20.45;52.36;99673.66;6092758;23;20005;-83
2022/06/25 19:48:33;;;;;;;4.60;1.27;;;;;;;20.41;52.23;99674.00;6093177;23;20002;-83
2022/06/25 19:50:58;;;;;;;4.65;1.08;;;;;;;20.01;53.27;99675.34;6094991;23;20013;-83
2022/06/25 19:53:23;;;;;;;7.30;1.20;;;;;;;20.15;52.86;99674.50;6095292;23;20033;-83
2022/06/25 19:55:49;;;;;;;7.40;1.13;;;;;;;19.95;53.35;99681.41;6093067;23;20003;-83
2022/06/25 19:58:14;;;;;;;6.43;1.13;;;;;;;19.62;54.64;99687.00;6094715;23;20002;-83
2022/06/25 20:00:39;;;;;;;8.68;1.30;;;;;;;19.68;54.78;99688.94;6093320;23;20013;-83
2022/06/25 20:03:05;;;;;;;8.15;0.95;;;;;;;19.87;54.89;99692.16;6116860;23;20038;-83
2022/06/25 20:05:30;;;;;;;8.82;1.38;;;;;;;20.02;54.10;99692.97;6091923;23;20006;-83
2022/06/25 20:07:55;;;;;;;7.65;1.27;;;;;;;19.90;54.62;99697.91;6091909;23;20010;-83
2022/06/25 20:10:21;;;;;;;9.68;1.00;;;;;;;19.88;55.36;99701.78;6095361;23;19998;-83
2022/06/25 20:12:46;;;;;;;12.48;1.10;;;;;;;19.78;55.45;99704.69;6090394;23;20251;-83
2022/06/25 20:15:12;;;;;;;3.45;1.75;;;;;;;19.50;56.56;99702.59;6090634;23;20029;-83
2022/06/25 20:17:39;;;;;;;10.40;1.20;;;;;;;19.59;57.04;99704.19;6092878;23;20373;-82
2022/06/25 20:20:05;;;;;;;8.93;1.48;;;;;;;19.31;58.10;99709.25;6089174;23;20007;-82
2022/06/25 20:22:30;;;;;;;4.63;1.60;;;;;;;19.56;57.47;99714.34;6088572;23;20062;-82
2022/06/25 20:24:55;;;;;;;7.75;1.90;;;;;;;19.78;57.03;99713.50;6089205;23;20010;-82
2022/06/25 20:27:21;;;;;;;9.98;2.28;;;;;;;19.19;58.48;99710.63;6089077;23;20074;-82
2022/06/25 20:29:46;;;;;;;10.20;1.85;;;;;;;18.84;60.41;99707.56;6090861;23;20006;-82
2022/06/25 20:32:12;;;;;;;5.10;1.50;;;;;;;19.06;59.90;99721.06;6090579;23;20362;-82
2022/06/25 20:34:38;;;;;;;12.55;2.65;;;;;;;19.01;60.31;99719.72;6093973;23;20457;-82
2022/06/25 20:37:03;;;;;;;9.70;2.05;;;;;;;18.99;60.47;99711.09;6095222;23;20054;-82
2022/06/25 20:39:29;;;;;;;7.20;1.58;;;;;;;18.74;61.89;99726.34;6093457;23;20003;-83
2022/06/25 20:41:54;;;;;;;9.40;1.85;;;;;;;19.43;59.69;99720.28;6093275;23;20006;-83
2022/06/25 20:44:19;;;;;;;8.00;1.30;;;;;;;19.20;60.74;99722.97;6094799;23;20017;-83
2022/06/25 20:46:45;;;;;;;3.90;1.27;;;;;;;18.98;61.51;99719.28;6093900;23;20034;-83
2022/06/25 20:49:10;;;;;;;7.13;1.80;;;;;;;19.34;60.24;99730.16;6095353;23;20089;-83
2022/06/25 20:51:36;;;;;;;8.88;1.75;;;;;;;19.18;61.10;99723.13;6094542;23;20417;-83
2022/06/25 20:54:01;;;;;;;6.28;2.08;;;;;;;18.94;61.93;99726.78;6094243;23;20007;-83
2022/06/25 20:56:26;;;;;;;20.85;1.88;;;;;;;18.72;63.54;99731.03;6094356;23;20034;-83
2022/06/25 20:58:52;;;;;;;9.45;1.83;;;;;;;18.94;62.34;99734.75;6095041;23;20014;-83
2022/06/25 21:01:17;;;;;;;8.38;1.48;;;;;;;19.58;60.32;99733.66;6093140;23;20012;-83
2022/06/25 21:09:11;;;;;;;4.60;1.50;;;;;;;19.45;60.92;99733.41;6093588;23;20020;-83
2022/06/25 21:11:36;;;;;;;9.10;1.73;;;;;;;19.33;61.31;99731.19;6094077;23;20029;-83
2022/06/25 21:14:01;;;;;;;8.25;1.58;;;;;;;19.37;61.67;99734.28;6095048;23;20068;-83
2022/06/25 21:16:27;;;;;;;11.02;1.90;;;;;;;19.33;61.92;99744.50;6093998;23;20006;-82
2022/06/25 21:18:52;;;;;;;8.05;1.48;;;;;;;19.14;62.45;99735.13;6095203;23;20014;-83
2022/06/25 21:21:17;;;;;;;12.30;2.33;;;;;;;18.52;65.51;99743.06;6092773;23;20006;-84
2022/06/25 21:23:43;;;;;;;7.43;1.90;;;;;;;19.00;64.48;99747.34;6093243;23;20034;-83
2022/06/25 21:26:08;;;;;;;9.00;2.17;;;;;;;18.55;65.86;99748.03;6094532;23;20183;-83
2022/06/25 21:28:33;;;;;;;8.50;2.10;;;;;;;19.19;63.41;99739.91;6096826;23;20041;-83
2022/06/25 21:31:02;;;;;;;11.15;1.90;;;;;;;19.35;63.36;99742.47;6093653;23;20034;-83
2022/06/25 21:33:27;;;;;;;11.15;2.58;;;;;;;19.13;63.12;99749.44;6095556;23;20010;-82
2022/06/25 21:35:53;;;;;;;7.00;1.42;;;;;;;19.47;62.33;99755.34;6094543;23;19999;-83
2022/06/25 21:38:18;;;;;;;9.65;1.50;;;;;;;19.15;62.98;99752.75;6096116;23;20111;-83
2022/06/25 21:40:43;;;;;;;9.25;1.77;;;;;;;18.54;65.49;99755.19;6096274;23;20006;-83
2022/06/25 21:43:09;;;;;;;7.60;2.25;;;;;;;18.99;64.22;99748.34;6119490;23;20089;-83
2022/06/25 21:45:34;;;;;;;7.32;1.77;;;;;;;18.88;64.41;99746.09;6096112;23;20041;-82
2022/06/25 21:48:00;;;;;;;5.18;1.45;;;;;;;18.72;64.93;99757.63;6094545;23;20480;-83
2022/06/25 21:50:25;;;;;;;12.05;2.03;;;;;;;18.82;64.56;99750.28;6096385;23;20002;-84
2022/06/25 21:52:50;;;;;;;13.55;2.15;;;;;;;18.81;65.21;99753.94;6096378;23;20007;-83
2022/06/25 21:55:16;;;;;;;13.45;2.20;;;;;;;18.39;66.80;99754.25;6096799;23;20061;-83
2022/06/25 21:57:42;;;;;;;10.35;1.98;;;;;;;18.33;67.77;99757.59;6096221;23;20010;-83
2022/06/25 22:00:15;;;;;;;10.50;2.83;;;;;;;18.92;66.11;99751.91;6094636;23;20045;-84
2022/06/25 22:02:43;;;;;;;6.78;1.55;;;;;;;18.76;66.40;99748.28;6093689;23;20010;-84
2022/06/25 22:05:09;;;;;;;11.35;2.00;;;;;;;18.50;67.00;99755.69;6094647;23;20038;-84
2022/06/25 22:07:35;;;;;;;5.97;1.63;;;;;;;18.30;68.00;99756.06;6095360;23;20170;-84
2022/06/25 22:10:00;;;;;;;5.43;1.35;;;;;;;18.34;68.34;99754.72;6094974;23;20165;-83
2022/06/25 22:12:26;;;;;;;8.23;1.30;;;;;;;18.66;66.73;99754.78;6094352;23;20505;-83
2022/06/25 22:14:51;;;;;;;7.13;3.05;;;;;;;18.52;67.08;99746.56;6089714;23;20006;-83
2022/06/25 22:17:17;;;;;;;7.10;1.77;;;;;;;18.46;67.68;99760.50;6094022;23;20086;-83
2022/06/25 22:19:42;;;;;;;11.75;2.47;;;;;;;18.56;67.09;99762.97;6096226;23;20448;-83
2022/06/25 22:22:07;;;;;;;11.48;2.40;;;;;;;18.72;66.34;99756.75;6094192;23;20030;-83
2022/06/25 22:24:32;;;;;;;9.38;2.05;;;;;;;18.65;66.09;99761.13;6096373;23;20010;-83
2022/06/25 22:26:58;;;;;;;10.48;2.20;;;;;;;18.73;66.18;99763.75;6095680;23;20439;-83
2022/06/25 22:29:24;;;;;;;7.15;1.80;;;;;;;18.96;65.28;99759.34;6095843;23;20061;-82
2022/06/25 22:31:50;;;;;;;15.10;3.00;;;;;;;19.13;64.17;99761.91;6094380;23;20007;-82
2022/06/25 22:34:15;;;;;;;11.80;2.33;;;;;;;18.94;64.44;99760.53;6095575;23;20428;-82
2022/06/25 22:36:41;;;;;;;6.53;1.35;;;;;;;18.60;66.24;99769.59;6091001;23;20010;-82
2022/06/25 22:39:06;;;;;;;5.70;1.55;;;;;;;19.10;64.33;99759.63;6096266;23;20006;-82
2022/06/25 22:41:32;;;;;;;8.10;1.77;;;;;;;18.90;64.72;99760.06;6091165;23;20093;-82
2022/06/25 22:43:57;;;;;;;8.57;1.52;;;;;;;18.53;66.08;99769.47;6093576;23;20421;-82
2022/06/25 22:46:22;;;;;;;7.90;1.60;;;;;;;18.66;65.60;99771.59;6094362;23;20005;-84
2022/06/25 22:48:48;;;;;;;9.80;1.60;;;;;;;18.47;66.29;99770.16;6092977;23;20057;-83
2022/06/25 22:51:13;;;;;;;9.20;2.20;;;;;;;18.56;66.01;99770.94;6092268;23;19999;-83
2022/06/25 22:53:39;;;;;;;9.20;1.45;;;;;;;18.77;64.96;99765.06;6116537;23;20688;-83
2022/06/25 22:56:04;;;;;;;8.70;1.48;;;;;;;18.50;65.84;99772.47;6091532;23;20010;-83
2022/06/25 22:58:30;;;;;;;15.93;2.33;;;;;;;18.45;66.25;99776.66;6087358;23;20014;-83
2022/06/25 23:00:55;;;;;;;10.43;1.30;;;;;;;18.99;63.90;99774.13;6093552;23;20011;-83
2022/06/25 23:03:20;;;;;;;9.98;1.40;;;;;;;18.45;65.96;99776.66;6092656;23;20010;-83
2022/06/25 23:05:46;;;;;;;9.98;1.55;;;;;;;18.69;65.01;99773.06;6092227;23;20381;-82
2022/06/25 23:08:11;;;;;;;12.40;2.30;;;;;;;18.50;65.57;99780.44;6093251;23;20065;-82
2022/06/25 23:10:37;;;;;;;3.50;0.90;;;;;;;18.70;64.98;99780.03;6091020;23;20365;-83
2022/06/25 23:13:05;;;;;;;4.60;1.10;;;;;;;19.01;64.22;99775.59;6092585;23;20461;-83
2022/06/25 23:15:30;;;;;;;11.57;1.63;;;;;;;18.46;65.27;99772.97;6092204;23;20009;-82
2022/06/25 23:17:55;;;;;;;11.98;1.60;;;;;;;18.87;63.57;99775.53;6094336;23;20006;-82
2022/06/25 23:20:21;;;;;;;11.32;1.42;;;;;;;18.52;65.20;99778.47;6095179;23;20089;-83
2022/06/25 23:22:47;;;;;;;4.68;1.30;;;;;;;18.50;65.05;99783.09;6094295;23;20058;-82
2022/06/25 23:25:14;;;;;;;9.00;1.75;;;;;;;18.29;66.30;99782.84;6094242;23;20010;-82
2022/06/25 23:27:40;;;;;;;6.35;1.48;;;;;;;18.25;66.70;99782.34;6093213;23;20006;-83
2022/06/25 23:30:08;;;;;;;8.60;1.85;;;;;;;18.46;66.08;99775.66;6092498;23;20010;-82
2022/06/25 23:32:33;;;;;;;8.82;1.10;;;;;;;18.74;64.27;99786.66;6093271;23;20426;-82
2022/06/25 23:34:59;;;;;;;10.60;2.25;;;;;;;18.12;66.37;99782.84;6090093;23;20010;-82
2022/06/25 23:37:24;;;;;;;14.57;2.83;;;;;;;17.99;67.32;99783.38;6091157;23;20512;-83
2022/06/25 23:39:49;;;;;;;8.60;2.05;;;;;;;18.43;65.67;99787.44;6091110;23;20045;-82
2022/06/25 23:42:15;;;;;;;10.50;2.10;;;;;;;18.17;66.65;99785.03;6087967;23;20493;-82
2022/06/25 23:44:40;;;;;;;9.40;1.65;;;;;;;18.19;66.62;99783.03;6112622;23;20017;-82